createdAt,value
2017-06-28T00:01:44.355Z,94.20
2017-06-28T00:04:10.702Z,94.20
2017-06-28T00:06:37.358Z,94.30
2017-06-28T00:09:03.744Z,94.50
2017-06-28T00:11:30.077Z,94.50
2017-06-28T00:13:56.432Z,94.70
2017-06-28T00:16:22.820Z,94.80
2017-06-28T00:18:50.260Z,94.80
2017-06-28T00:21:17.332Z,94.70
2017-06-28T00:23:44.401Z,94.70
2017-06-28T00:26:10.758Z,94.70
2017-06-28T00:28:37.107Z,94.60
2017-06-28T00:31:03.728Z,94.60
2017-06-28T00:33:30.111Z,94.60
2017-06-28T00:35:56.445Z,94.60
2017-06-28T00:38:22.801Z,94.50
2017-06-28T00:40:49.147Z,94.50
2017-06-28T00:43:15.737Z,94.60
2017-06-28T00:45:42.066Z,94.60
2017-06-28T00:48:08.432Z,94.60
2017-06-28T00:50:34.789Z,94.60
2017-06-28T00:53:01.180Z,94.60
2017-06-28T00:55:27.875Z,94.60
2017-06-28T00:57:54.247Z,94.50
2017-06-28T01:02:53.819Z,94.40
2017-06-28T01:05:27.229Z,94.50
2017-06-28T01:07:53.954Z,94.40
2017-06-28T01:10:20.359Z,94.30
2017-06-28T01:12:46.748Z,94.30
2017-06-28T01:15:13.159Z,94.30
2017-06-28T01:17:39.548Z,94.20
2017-06-28T01:20:06.295Z,94.10
2017-06-28T01:22:32.685Z,94.10
2017-06-28T01:24:59.032Z,94.00
2017-06-28T01:27:25.414Z,94.10
2017-06-28T01:29:51.797Z,94.20
2017-06-28T01:32:18.656Z,94.20
2017-06-28T01:34:45.076Z,94.20
2017-06-28T01:37:11.460Z,94.20
2017-06-28T01:39:37.838Z,94.20
2017-06-28T01:42:04.248Z,94.10
2017-06-28T01:44:30.974Z,94.20
2017-06-28T01:46:57.378Z,94.30
2017-06-28T01:49:23.773Z,94.30
2017-06-28T01:51:50.187Z,94.30
2017-06-28T01:54:16.626Z,94.30
2017-06-28T01:56:43.317Z,94.40
2017-06-28T01:59:09.684Z,94.50
2017-06-28T02:01:36.050Z,94.50
2017-06-28T02:04:02.470Z,94.50
2017-06-28T02:06:29.584Z,94.90
2017-06-28T02:08:56.364Z,94.40
2017-06-28T02:11:22.720Z,94.70
2017-06-28T02:13:49.108Z,94.60
2017-06-28T02:16:15.464Z,94.70
2017-06-28T02:18:41.852Z,94.70
2017-06-28T02:21:08.501Z,94.60
2017-06-28T02:23:34.873Z,94.70
2017-06-28T02:26:01.241Z,94.80
2017-06-28T02:28:27.636Z,94.80
2017-06-28T02:30:53.995Z,94.80
2017-06-28T02:33:20.673Z,94.80
2017-06-28T02:35:47.048Z,94.70
2017-06-28T02:38:13.407Z,94.70
2017-06-28T02:40:39.798Z,94.60
2017-06-28T02:43:06.164Z,94.60
2017-06-28T02:45:32.909Z,94.60
2017-06-28T02:47:59.265Z,94.60
2017-06-28T02:50:26.359Z,94.60
2017-06-28T02:52:52.719Z,94.60
2017-06-28T02:55:19.103Z,94.60
2017-06-28T02:57:45.784Z,94.70
2017-06-28T03:00:12.191Z,94.70
2017-06-28T03:02:38.517Z,94.70
2017-06-28T03:05:04.888Z,94.70
2017-06-28T03:07:31.288Z,94.70
2017-06-28T03:09:57.947Z,94.70
2017-06-28T03:12:24.292Z,94.60
2017-06-28T03:14:50.715Z,94.60
2017-06-28T03:17:17.844Z,95.00
2017-06-28T03:19:44.211Z,94.60
2017-06-28T03:22:10.577Z,94.60
2017-06-28T03:24:37.234Z,94.50
2017-06-28T03:27:03.622Z,94.50
2017-06-28T03:29:30.045Z,94.60
2017-06-28T03:31:56.776Z,94.50
2017-06-28T03:34:23.852Z,94.50
2017-06-28T03:36:50.217Z,94.50
2017-06-28T03:39:16.626Z,94.40
2017-06-28T03:41:43.011Z,94.40
2017-06-28T03:44:09.728Z,94.40
2017-06-28T03:46:36.084Z,94.40
2017-06-28T03:49:02.433Z,94.40
2017-06-28T03:51:28.824Z,94.50
2017-06-28T03:53:55.193Z,94.60
2017-06-28T03:56:21.889Z,94.60
2017-06-28T03:58:48.973Z,94.40
2017-06-28T04:01:15.357Z,94.40
2017-06-28T04:03:41.745Z,94.20
2017-06-28T04:06:08.109Z,94.10
2017-06-28T04:08:34.789Z,94.10
2017-06-28T04:11:01.153Z,94.00
2017-06-28T04:13:27.523Z,93.90
2017-06-28T04:15:53.876Z,93.80
2017-06-28T04:18:20.225Z,93.90
2017-06-28T04:20:46.906Z,93.70
2017-06-28T04:23:13.356Z,93.60
2017-06-28T04:25:39.717Z,93.90
2017-06-28T04:28:06.093Z,94.00
2017-06-28T04:30:32.440Z,93.90
2017-06-28T04:32:59.938Z,93.60
2017-06-28T04:35:26.296Z,93.60
2017-06-28T04:37:52.657Z,93.70
2017-06-28T04:40:19.781Z,93.50
2017-06-28T04:42:46.137Z,93.50
2017-06-28T04:45:12.830Z,93.50
2017-06-28T04:47:39.197Z,93.30
2017-06-28T04:50:05.559Z,93.10
2017-06-28T04:52:31.942Z,93.10
2017-06-28T04:54:58.316Z,93.00
2017-06-28T04:57:24.990Z,92.90
2017-06-28T04:59:51.316Z,92.60
2017-06-28T05:02:17.690Z,92.40
2017-06-28T05:04:44.780Z,92.10
2017-06-28T05:07:11.140Z,92.10
2017-06-28T05:09:37.848Z,91.90
2017-06-28T05:12:04.211Z,91.90
2017-06-28T05:14:30.586Z,91.90
2017-06-28T05:16:56.944Z,91.80
2017-06-28T05:19:23.269Z,92.10
2017-06-28T05:21:50.025Z,92.00
2017-06-28T05:24:16.409Z,91.90
2017-06-28T05:26:42.750Z,92.20
2017-06-28T05:29:09.091Z,92.50
2017-06-28T05:31:35.421Z,92.70
2017-06-28T05:34:02.098Z,92.70
2017-06-28T05:36:29.181Z,92.60
2017-06-28T05:38:55.533Z,92.60
2017-06-28T05:41:21.929Z,92.60
2017-06-28T05:43:48.258Z,92.50
2017-06-28T05:46:15.673Z,92.30
2017-06-28T05:48:42.000Z,92.30
2017-06-28T05:51:08.362Z,92.30
2017-06-28T05:53:34.744Z,92.50
2017-06-28T05:56:01.074Z,92.50
2017-06-28T05:58:27.686Z,92.30
2017-06-28T06:00:54.041Z,91.80
2017-06-28T06:03:20.358Z,92.30
2017-06-28T06:05:46.703Z,92.10
2017-06-28T06:08:13.126Z,92.50
2017-06-28T06:10:39.798Z,92.60
2017-06-28T06:13:06.111Z,92.50
2017-06-28T06:15:32.454Z,92.60
2017-06-28T06:17:58.866Z,92.60
2017-06-28T06:20:25.226Z,92.40
2017-06-28T06:22:52.668Z,91.60
2017-06-28T06:25:19.023Z,91.60
2017-06-28T06:27:46.128Z,91.60
2017-06-28T06:30:12.488Z,91.60
2017-06-28T06:32:38.955Z,91.60
2017-06-28T06:35:05.598Z,91.60
2017-06-28T06:37:31.928Z,91.60
2017-06-28T06:39:58.296Z,91.40
2017-06-28T06:42:24.659Z,91.20
2017-06-28T06:44:51.713Z,90.80
2017-06-28T06:47:18.419Z,90.80
2017-06-28T06:49:44.747Z,90.70
2017-06-28T06:52:11.061Z,90.70
2017-06-28T06:54:37.414Z,88.60
2017-06-28T06:57:04.545Z,88.70
2017-06-28T06:59:31.209Z,88.70
2017-06-28T07:01:57.533Z,88.80
2017-06-28T07:04:23.903Z,89.20
2017-06-28T07:06:50.251Z,88.90
2017-06-28T07:09:16.595Z,88.80
2017-06-28T07:11:43.202Z,88.60
2017-06-28T07:14:09.515Z,89.20
2017-06-28T07:16:35.846Z,89.60
2017-06-28T07:19:02.186Z,90.30
2017-06-28T07:21:28.512Z,90.10
2017-06-28T07:23:55.203Z,90.30
2017-06-28T07:26:21.539Z,90.20
2017-06-28T07:28:47.859Z,90.40
2017-06-28T07:31:14.931Z,90.00
2017-06-28T07:33:41.311Z,90.00
2017-06-28T07:36:07.970Z,90.00
2017-06-28T07:38:34.313Z,90.40
2017-06-28T07:41:00.738Z,90.00
2017-06-28T07:43:27.095Z,90.10
2017-06-28T07:45:53.443Z,90.10
2017-06-28T07:48:20.136Z,90.10
2017-06-28T07:50:46.447Z,90.30
2017-06-28T07:53:12.787Z,90.30
2017-06-28T07:55:39.129Z,90.20
2017-06-28T07:58:05.457Z,90.30
2017-06-28T08:00:32.095Z,89.50
2017-06-28T08:02:58.415Z,88.90
2017-06-28T08:05:24.751Z,89.00
2017-06-28T08:07:51.850Z,88.80
2017-06-28T08:10:18.183Z,88.80
2017-06-28T08:12:44.512Z,88.50
2017-06-28T08:15:11.133Z,88.30
2017-06-28T08:17:37.450Z,88.80
2017-06-28T08:20:03.763Z,88.90
2017-06-28T08:22:30.459Z,88.50
2017-06-28T08:24:57.922Z,86.00
2017-06-28T08:27:25.001Z,85.20
2017-06-28T08:29:51.710Z,85.20
2017-06-28T08:32:18.158Z,84.80
2017-06-28T08:34:44.542Z,84.50
2017-06-28T08:37:10.961Z,83.50
2017-06-28T08:39:37.300Z,82.80
2017-06-28T08:42:03.981Z,81.30
2017-06-28T08:44:30.307Z,81.90
2017-06-28T08:46:57.757Z,78.70
2017-06-28T08:49:24.139Z,79.20
2017-06-28T08:51:50.501Z,78.50
2017-06-28T08:54:17.118Z,75.40
2017-06-28T08:56:43.460Z,73.70
2017-06-28T08:59:09.833Z,72.60
2017-06-28T09:01:36.326Z,69.70
2017-06-28T09:04:02.737Z,69.90
2017-06-28T09:06:29.402Z,70.30
2017-06-28T09:08:55.942Z,69.00
2017-06-28T09:11:22.276Z,69.20
2017-06-28T09:13:49.377Z,69.70
2017-06-28T09:16:15.716Z,69.70
2017-06-28T09:18:42.359Z,69.60
2017-06-28T09:21:08.713Z,68.30
2017-06-28T09:23:35.785Z,69.30
2017-06-28T09:26:02.112Z,69.30
2017-06-28T09:28:28.458Z,67.60
2017-06-28T09:30:55.062Z,67.40
2017-06-28T09:33:22.189Z,65.70
2017-06-28T09:35:49.317Z,67.50
2017-06-28T09:38:15.661Z,67.30
2017-06-28T09:40:42.007Z,66.40
2017-06-28T09:43:09.490Z,66.20
2017-06-28T09:45:35.888Z,66.20
2017-06-28T09:48:02.249Z,65.80
2017-06-28T09:50:28.648Z,64.50
2017-06-28T09:52:54.999Z,66.10
2017-06-28T09:55:21.662Z,65.50
2017-06-28T09:57:48.013Z,65.40
2017-06-28T10:00:14.403Z,65.30
2017-06-28T10:02:40.754Z,65.20
2017-06-28T10:05:07.155Z,63.30
2017-06-28T10:07:33.871Z,62.70
2017-06-28T10:10:00.242Z,62.30
2017-06-28T10:12:26.606Z,59.10
2017-06-28T10:14:53.001Z,58.50
2017-06-28T10:17:19.346Z,58.90
2017-06-28T10:19:46.020Z,59.30
2017-06-28T10:22:12.356Z,58.20
2017-06-28T10:24:38.673Z,58.30
2017-06-28T10:27:04.992Z,57.90
2017-06-28T10:29:31.323Z,58.00
2017-06-28T10:31:57.974Z,58.70
2017-06-28T10:34:24.333Z,59.20
2017-06-28T10:36:50.692Z,59.70
2017-06-28T10:39:17.113Z,61.40
2017-06-28T10:41:43.446Z,62.40
2017-06-28T10:44:10.077Z,63.80
2017-06-28T10:46:36.450Z,64.90
2017-06-28T10:49:02.792Z,65.10
2017-06-28T10:51:29.131Z,65.20
2017-06-28T10:53:56.236Z,68.90
2017-06-28T10:56:22.987Z,68.80
2017-06-28T10:58:49.344Z,68.50
2017-06-28T11:01:15.702Z,66.90
2017-06-28T11:03:42.063Z,64.80
2017-06-28T11:06:08.403Z,63.80
2017-06-28T11:08:35.008Z,61.00
2017-06-28T11:11:01.402Z,61.20
2017-06-28T11:13:28.521Z,63.50
2017-06-28T11:15:54.859Z,63.50
2017-06-28T11:18:21.233Z,63.40
2017-06-28T11:20:47.949Z,64.50
2017-06-28T11:23:15.082Z,65.50
2017-06-28T11:25:41.426Z,65.30
2017-06-28T11:28:08.553Z,67.10
2017-06-28T11:30:34.914Z,67.00
2017-06-28T11:33:01.617Z,68.50
2017-06-28T11:35:27.938Z,71.10
2017-06-28T11:37:54.317Z,74.50
2017-06-28T11:40:20.692Z,77.00
2017-06-28T11:42:47.027Z,76.40
2017-06-28T11:45:13.892Z,76.40
2017-06-28T11:47:40.974Z,77.70
2017-06-28T11:50:07.351Z,77.70
2017-06-28T11:52:33.763Z,77.30
2017-06-28T11:55:00.731Z,75.70
2017-06-28T11:57:28.177Z,73.20
2017-06-28T11:59:54.838Z,70.80
2017-06-28T12:02:21.932Z,68.00
2017-06-28T12:04:48.608Z,68.00
2017-06-28T12:07:14.953Z,66.10
2017-06-28T12:09:41.283Z,64.70
2017-06-28T12:12:08.407Z,64.10
2017-06-28T12:14:34.771Z,64.00
2017-06-28T12:17:01.405Z,63.50
2017-06-28T12:19:27.733Z,63.70
2017-06-28T12:21:54.807Z,63.80
2017-06-28T12:24:21.139Z,63.80
2017-06-28T12:26:47.517Z,63.90
2017-06-28T12:29:14.258Z,64.70
2017-06-28T12:31:41.324Z,68.40
2017-06-28T12:34:07.751Z,67.70
2017-06-28T12:36:34.095Z,69.10
2017-06-28T12:39:00.450Z,70.10
2017-06-28T12:41:27.092Z,70.80
2017-06-28T12:43:53.421Z,70.70
2017-06-28T12:46:19.747Z,70.70
2017-06-28T12:48:46.081Z,70.80
2017-06-28T12:51:12.425Z,71.20
2017-06-28T12:53:39.065Z,71.40
2017-06-28T12:56:05.396Z,70.60
2017-06-28T12:58:31.707Z,70.20
2017-06-28T13:00:58.082Z,70.70
2017-06-28T13:03:24.456Z,70.30
2017-06-28T13:05:51.115Z,70.10
2017-06-28T13:08:17.515Z,70.00
2017-06-28T13:10:51.035Z,69.70
2017-06-28T13:13:17.381Z,69.70
2017-06-28T13:15:43.717Z,68.90
2017-06-28T13:18:10.093Z,62.10
2017-06-28T13:20:36.420Z,59.00
2017-06-28T13:23:03.209Z,55.60
2017-06-28T13:25:29.529Z,53.10
2017-06-28T13:27:55.867Z,51.80
2017-06-28T13:30:22.191Z,50.40
2017-06-28T13:32:48.569Z,49.10
2017-06-28T13:35:15.267Z,47.70
2017-06-28T13:37:41.600Z,47.80
2017-06-28T13:40:08.706Z,46.10
2017-06-28T13:42:35.081Z,46.00
2017-06-28T13:45:02.142Z,48.90
2017-06-28T13:47:28.998Z,48.80
2017-06-28T13:49:55.381Z,50.10
2017-06-28T13:52:21.715Z,51.20
2017-06-28T13:54:48.048Z,51.60
2017-06-28T13:57:14.399Z,51.70
2017-06-28T13:59:41.789Z,51.70
2017-06-28T14:02:08.155Z,51.70
2017-06-28T14:04:34.494Z,51.60
2017-06-28T14:07:01.597Z,51.40
2017-06-28T14:09:27.958Z,50.70
2017-06-28T14:11:54.819Z,50.50
2017-06-28T14:14:21.862Z,49.30
2017-06-28T14:16:48.951Z,48.90
2017-06-28T14:19:16.194Z,48.90
2017-06-28T14:21:42.514Z,48.30
2017-06-28T14:24:08.872Z,47.70
2017-06-28T14:26:35.235Z,47.40
2017-06-28T14:29:01.607Z,48.60
2017-06-28T14:31:27.917Z,47.20
2017-06-28T14:33:54.571Z,47.00
2017-06-28T14:36:20.919Z,48.00
2017-06-28T14:38:47.262Z,47.30
2017-06-28T14:41:13.631Z,47.30
2017-06-28T14:43:40.700Z,47.20
2017-06-28T14:46:07.333Z,47.20
2017-06-28T14:48:33.685Z,47.60
2017-06-28T14:51:00.079Z,48.70
2017-06-28T14:53:27.194Z,51.00
2017-06-28T14:55:53.535Z,50.90
2017-06-28T14:58:20.192Z,51.80
2017-06-28T15:00:46.524Z,52.30
2017-06-28T15:03:13.689Z,53.20
2017-06-28T15:05:40.057Z,53.30
2017-06-28T15:08:06.410Z,53.40
2017-06-28T15:10:33.065Z,53.60
2017-06-28T15:12:59.431Z,54.40
2017-06-28T15:15:25.773Z,55.00
2017-06-28T15:17:52.184Z,55.20
2017-06-28T15:20:18.537Z,55.70
2017-06-28T15:22:45.183Z,56.10
2017-06-28T15:25:11.515Z,56.20
2017-06-28T15:27:37.857Z,55.90
2017-06-28T15:30:04.214Z,56.90
2017-06-28T15:32:30.559Z,56.90
2017-06-28T15:34:57.247Z,57.50
2017-06-28T15:37:23.552Z,58.50
2017-06-28T15:39:49.873Z,57.50
2017-06-28T15:42:16.226Z,56.90
2017-06-28T15:44:49.449Z,57.80
2017-06-28T15:47:16.176Z,59.20
2017-06-28T15:49:42.535Z,60.40
2017-06-28T15:52:08.891Z,60.90
2017-06-28T15:54:35.283Z,61.30
2017-06-28T15:57:01.678Z,62.00
2017-06-28T15:59:28.321Z,62.80
2017-06-28T16:01:54.675Z,62.60
2017-06-28T16:04:21.041Z,62.30
2017-06-28T16:06:47.382Z,62.50
2017-06-28T16:09:13.756Z,63.30
2017-06-28T16:11:41.146Z,67.40
2017-06-28T16:14:07.514Z,67.30
2017-06-28T16:16:33.848Z,69.70
2017-06-28T16:19:00.356Z,73.20
2017-06-28T16:21:26.738Z,75.70
2017-06-28T16:23:54.143Z,79.70
2017-06-28T16:26:20.477Z,79.60
2017-06-28T16:28:46.872Z,80.10
2017-06-28T16:31:13.270Z,81.00
2017-06-28T16:33:39.687Z,82.10
2017-06-28T16:36:06.345Z,83.50
2017-06-28T16:38:35.279Z,85.70
2017-06-28T16:41:01.664Z,85.60
2017-06-28T16:43:27.945Z,85.80
2017-06-28T16:45:54.363Z,87.10
2017-06-28T16:48:21.064Z,88.00
2017-06-28T16:50:47.460Z,88.40
2017-06-28T16:53:13.820Z,89.10
2017-06-28T16:55:40.983Z,90.70
2017-06-28T16:58:07.350Z,90.70
2017-06-28T17:00:34.140Z,90.80
2017-06-28T17:03:01.215Z,91.20
2017-06-28T17:05:27.597Z,91.20
2017-06-28T17:07:54.004Z,91.10
2017-06-28T17:10:20.322Z,91.10
2017-06-28T17:12:46.996Z,91.20
2017-06-28T17:15:14.731Z,91.20
2017-06-28T17:17:41.166Z,91.20
2017-06-28T17:20:07.505Z,91.70
2017-06-28T17:22:33.911Z,91.80
2017-06-28T17:25:00.563Z,92.30
2017-06-28T17:27:26.900Z,92.70
2017-06-28T17:29:53.301Z,92.80
2017-06-28T17:32:19.678Z,92.80
2017-06-28T17:34:46.774Z,92.80
2017-06-28T17:37:13.575Z,92.70
2017-06-28T17:39:42.158Z,91.90
2017-06-28T17:42:09.274Z,91.90
2017-06-28T17:44:35.603Z,91.90
2017-06-28T17:47:01.967Z,92.00
2017-06-28T17:49:28.350Z,91.90
2017-06-28T17:51:54.699Z,91.80
2017-06-28T17:54:21.084Z,91.50
2017-06-28T17:56:47.507Z,91.10
2017-06-28T17:59:13.863Z,91.20
2017-06-28T18:01:40.241Z,91.40
2017-06-28T18:04:07.328Z,92.00
2017-06-28T18:06:34.016Z,92.00
2017-06-28T18:09:01.252Z,92.20
2017-06-28T18:11:28.350Z,92.30
2017-06-28T18:13:54.749Z,92.20
2017-06-28T18:16:21.858Z,92.10
2017-06-28T18:18:48.311Z,92.10
2017-06-28T18:21:14.735Z,92.30
2017-06-28T18:23:41.491Z,92.20
2017-06-28T18:26:07.888Z,92.10
2017-06-28T18:28:34.287Z,91.90
2017-06-28T18:31:00.693Z,91.90
2017-06-28T18:33:27.825Z,92.20
2017-06-28T18:35:55.002Z,92.30
2017-06-28T18:38:21.431Z,92.20
2017-06-28T18:40:48.890Z,92.30
2017-06-28T18:43:15.311Z,92.20
2017-06-28T18:48:15.552Z,92.20
2017-06-28T18:50:42.028Z,92.00
2017-06-28T18:53:08.487Z,91.80
2017-06-28T18:55:35.626Z,91.90
2017-06-28T18:58:02.311Z,91.90
2017-06-28T19:00:28.708Z,92.00
2017-06-28T19:02:55.133Z,91.90
2017-06-28T19:05:21.638Z,92.10
2017-06-28T19:07:48.066Z,92.10
2017-06-28T19:10:14.503Z,92.00
2017-06-28T19:12:40.980Z,91.70
2017-06-28T19:15:08.009Z,92.30
2017-06-28T19:17:34.537Z,92.30
2017-06-28T19:20:01.226Z,92.40
2017-06-28T19:22:27.715Z,92.50
2017-06-28T19:24:54.103Z,92.70
2017-06-28T19:27:20.533Z,93.00
2017-06-28T19:29:46.902Z,93.40
2017-06-28T19:32:13.598Z,93.70
2017-06-28T19:34:40.028Z,93.80
2017-06-28T19:37:06.419Z,93.90
2017-06-28T19:39:33.601Z,94.00
2017-06-28T19:42:00.005Z,93.90
2017-06-28T19:44:27.116Z,93.90
2017-06-28T19:46:53.500Z,93.90
2017-06-28T19:49:20.163Z,93.80
2017-06-28T19:51:46.547Z,93.80
2017-06-28T19:54:13.720Z,93.80
2017-06-28T19:56:40.123Z,93.80
2017-06-28T19:59:07.294Z,93.70
2017-06-28T20:01:34.112Z,93.70
2017-06-28T20:04:01.221Z,94.00
2017-06-28T20:06:27.616Z,94.00
2017-06-28T20:08:54.039Z,94.00
2017-06-28T20:11:20.395Z,94.00
2017-06-28T20:13:47.071Z,93.90
2017-06-28T20:16:13.506Z,94.00
2017-06-28T20:18:39.923Z,94.00
2017-06-28T20:21:06.308Z,93.90
2017-06-28T20:23:32.657Z,93.90
2017-06-28T20:25:59.059Z,93.90
2017-06-28T20:28:25.390Z,94.10
2017-06-28T20:30:52.098Z,94.10
2017-06-28T20:33:18.440Z,94.10
2017-06-28T20:35:45.509Z,93.90
2017-06-28T20:38:11.893Z,93.90
2017-06-28T20:40:38.990Z,94.30
2017-06-28T20:43:05.346Z,94.00
2017-06-28T20:45:31.713Z,94.10
2017-06-28T20:47:58.556Z,94.20
2017-06-28T20:50:24.922Z,94.40
2017-06-28T20:52:51.279Z,94.50
2017-06-28T20:55:17.658Z,94.70
2017-06-28T20:57:44.034Z,94.80
2017-06-28T21:00:10.366Z,94.80
2017-06-28T21:02:36.700Z,95.10
2017-06-28T21:05:03.342Z,94.90
2017-06-28T21:07:29.703Z,95.00
2017-06-28T21:09:58.775Z,95.20
2017-06-28T21:12:25.161Z,95.30
2017-06-28T21:14:51.541Z,95.30
2017-06-28T21:17:18.037Z,95.30
2017-06-28T21:19:44.397Z,95.20
2017-06-28T21:22:11.044Z,95.20
2017-06-28T21:24:37.402Z,95.20
2017-06-28T21:27:03.756Z,95.20
2017-06-28T21:29:30.110Z,95.30
2017-06-28T21:31:56.477Z,95.30
2017-06-28T21:34:22.821Z,95.10
2017-06-28T21:36:49.113Z,95.10
2017-06-28T21:39:15.873Z,95.20
2017-06-28T21:41:42.243Z,95.00
2017-06-28T21:44:08.578Z,95.10
2017-06-28T21:46:34.961Z,95.30
2017-06-28T21:49:02.064Z,95.10
2017-06-28T21:51:28.396Z,95.10
2017-06-28T21:53:54.729Z,95.10
2017-06-28T21:56:21.363Z,95.10
2017-06-28T21:58:47.692Z,95.10
2017-06-28T22:01:14.783Z,95.20
2017-06-28T22:03:41.155Z,95.20
2017-06-28T22:06:07.497Z,95.20
2017-06-28T22:08:33.848Z,95.20
2017-06-28T22:11:00.996Z,95.10
2017-06-28T22:13:27.726Z,95.20
2017-06-28T22:15:54.089Z,95.20
2017-06-28T22:18:32.803Z,95.20
2017-06-28T22:20:59.170Z,95.10
2017-06-28T22:23:26.688Z,95.20
2017-06-28T22:25:53.092Z,95.30
2017-06-28T22:28:19.447Z,95.30
2017-06-28T22:30:45.851Z,95.30
2017-06-28T22:33:12.210Z,95.40
2017-06-28T22:35:38.534Z,95.40
2017-06-28T22:38:05.629Z,95.30
2017-06-28T22:40:32.315Z,95.30
2017-06-28T22:42:59.406Z,95.50
2017-06-28T22:45:25.762Z,95.50
2017-06-28T22:47:52.131Z,95.70
2017-06-28T22:50:18.504Z,95.70
2017-06-28T22:52:44.859Z,95.60
2017-06-28T22:55:11.224Z,95.80
2017-06-28T22:57:37.922Z,95.80
2017-06-28T23:00:04.282Z,95.80
2017-06-28T23:02:31.391Z,95.80
2017-06-28T23:04:57.759Z,95.80
2017-06-28T23:07:24.125Z,95.80
2017-06-28T23:09:50.490Z,95.70
2017-06-28T23:12:16.841Z,95.80
2017-06-28T23:14:44.240Z,96.30
2017-06-28T23:17:10.587Z,96.00
2017-06-28T23:19:36.930Z,96.00
2017-06-28T23:22:03.328Z,96.00
2017-06-28T23:24:29.689Z,96.00
2017-06-28T23:26:56.069Z,96.00
2017-06-28T23:29:22.452Z,96.10
2017-06-28T23:31:49.095Z,96.30
2017-06-28T23:34:15.764Z,96.50
2017-06-28T23:36:42.124Z,96.60
2017-06-28T23:39:08.465Z,96.60
2017-06-28T23:41:34.813Z,96.60
2017-06-28T23:44:01.176Z,96.60
2017-06-28T23:49:00.859Z,96.40
2017-06-28T23:51:27.211Z,96.40
2017-06-28T23:53:54.283Z,96.40
2017-06-28T23:56:20.552Z,96.40
2017-06-28T23:58:46.903Z,96.30
